Currently 50°F in Anza, California, USA
50°F
51°F / 50°F
calm
0.00"
Tuesday, May 18, 2021 1:04 AM PDT

Anza, California Weather Summary
Last 36 Hours

Temperature Winds Hourly Humidity Dewpoint
Time Report Norm Report Norm Max Gusts Precip. Rpt. Norm Rpt. Norm Pressure
1Tue 01:04 AM  50.4°F  50°F  calm  6 mph  none  0.00"  100%  83%  50°F  45°F  N/A
Tue 01:00 AM  50.4°F  50°F  calm  5 mph  5 mph  0.00"  100%  83%  50°F  45°F  N/A
3Tue 12:27 AM  50.4°F  51°F  calm  5 mph  5 mph  ----  100%  83%  50°F  45°F  N/A
2Tue 12:06 AM  50.8°F  51°F  calm  5 mph  none  ----  100%  83%  51°F  46°F  N/A
Tue 12:00 AM  50.7°F  51°F  calm  5 mph  none  0.00"  100%  83%  51°F  46°F  N/A
Mon 11:00 PM  51.4°F  52°F  calm  6 mph  none  0.00"  100%  81%  51°F  46°F  N/A
Mon 10:00 PM  51.6°F  53°F  calm  6 mph  none  0.00"  98%  79%  51°F  46°F  N/A
Mon 09:00 PM  52.9°F  55°F  calm  6 mph  none  0.00"  97%  75%  52°F  47°F  N/A
Mon 08:00 PM  55.7°F  58°F  calm  7 mph  none  0.00"  91%  70%  53°F  47°F  N/A
Mon 07:00 PM  61.1°F  62°F  calm  9 mph  none  0.00"  77%  60%  54°F  48°F  N/A
Mon 06:00 PM  65.8°F  66°F  calm  10 mph  none  0.00"  66%  53%  54°F  48°F  N/A
Mon 05:00 PM  67.0°F  69°F  calm  10 mph  none  0.00"  64%  48%  54°F  47°F  N/A
Mon 04:00 PM  67.4°F  70°F  calm  11 mph  none  0.00"  63%  45%  54°F  47°F  N/A
Mon 03:00 PM  69.4°F  71°F  calm  11 mph  none  0.00"  59%  43%  54°F  46°F  N/A
Mon 02:00 PM  67.1°F  71°F  calm  11 mph  none  0.00"  65%  43%  54°F  46°F  N/A
Mon 01:00 PM  63.9°F  71°F  calm  10 mph  none  0.00"  71%  42%  54°F  46°F  N/A
Mon 12:00 PM  60.9°F  69°F  calm  10 mph  none  0.00"  77%  43%  53°F  45°F  N/A
Mon 11:00 AM  58.3°F  68°F  calm  9 mph  none  0.00"  82%  46%  53°F  45°F  N/A
Mon 10:00 AM  55.1°F  66°F  calm  9 mph  none  0.00"  88%  49%  52°F  45°F  N/A
Mon 09:00 AM  49.9°F  62°F  calm  8 mph  none  0.00"  99%  56%  50°F  46°F  N/A
Mon 08:00 AM  47.4°F  58°F  calm  7 mph  none  0.00"  100%  66%  47°F  46°F  N/A
Mon 07:00 AM  46.2°F  52°F  calm  5 mph  none  0.00"  100%  77%  46°F  45°F  N/A
Mon 06:00 AM  45.9°F  49°F  calm  4 mph  none  0.00"  100%  81%  46°F  43°F  N/A
Mon 05:00 AM  45.7°F  48°F  calm  4 mph  none  0.00"  100%  82%  46°F  43°F  N/A
Mon 04:00 AM  45.7°F  49°F  calm  5 mph  none  0.00"  100%  82%  46°F  44°F  N/A
Mon 03:00 AM  45.5°F  50°F  calm  5 mph  none  0.00"  100%  82%  45°F  44°F  N/A
Mon 02:00 AM  46.0°F  50°F  calm  5 mph  none  0.00"  100%  82%  46°F  45°F  N/A
Mon 01:00 AM  46.2°F  51°F  calm  5 mph  none  0.00"  100%  82%  46°F  45°F  N/A
Mon 12:00 AM  46.4°F  51°F  calm  5 mph  none  0.00"  100%  81%  46°F  46°F  N/A
Sun 11:00 PM  46.9°F  52°F  calm  5 mph  none  0.00"  100%  80%  47°F  46°F  N/A
Sun 10:00 PM  46.8°F  53°F  calm  5 mph  none  0.00"  100%  78%  47°F  47°F  N/A
Sun 09:00 PM  47.3°F  55°F  calm  6 mph  none  0.00"  100%  74%  47°F  47°F  N/A
Sun 08:00 PM  47.7°F  58°F  calm  7 mph  none  0.00"  99%  69%  47°F  48°F  N/A
Sun 07:00 PM  49.2°F  63°F  calm  9 mph  none  0.00"  97%  59%  48°F  48°F  N/A
Sun 06:00 PM  50.8°F  67°F  calm  10 mph  none  0.00"  95%  51%  49°F  48°F  N/A
Sun 05:00 PM  53.3°F  70°F  calm  10 mph  none  0.00"  85%  46%  49°F  47°F  N/A
Sun 04:00 PM  52.7°F  71°F  calm  11 mph  none  0.00"  89%  43%  50°F  46°F  N/A
Sun 03:00 PM  55.6°F  72°F  calm  11 mph  none  0.00"  80%  41%  49°F  46°F  N/A
Sun 02:00 PM  56.3°F  72°F  calm  11 mph  none  0.00"  79%  41%  50°F  46°F  N/A

  1. Current weather data. No green row appears if the current weather data is also the high or low for the current day.
  2. High temperature for the current day.
  3. Low temperature for the current day.

The Anza, California weather pages are a service of WeatherCurrents. The Anza Valley is southwestern Riverside County, east of Temecula and Aguanga, south of Mount San Jacinto and west of Mount Santa Rosa.
Copyright ©2021  WeatherCurrents. All rights reserved. - Submit questions and comments - Privacy Policy

This page automatically refreshes every 10 minutes.